sensor_id;sensor_type;location;lat;lon;timestamp;pressure;altitude;pressure_sealevel;temperature;humidity
41690;BME280;27372;42.658;23.256;2024-03-17T00:00:14;94031.59;;;7.61;95.63
41690;BME280;27372;42.658;23.256;2024-03-17T00:02:41;94038.25;;;7.25;97.01
41690;BME280;27372;42.658;23.256;2024-03-17T00:05:07;94035.13;;;7.03;98.61
41690;BME280;27372;42.658;23.256;2024-03-17T00:07:32;94031.41;;;6.78;100.00
41690;BME280;27372;42.658;23.256;2024-03-17T00:09:57;94027.78;;;6.79;100.00
41690;BME280;27372;42.658;23.256;2024-03-17T00:12:23;94025.91;;;6.93;100.00
41690;BME280;27372;42.658;23.256;2024-03-17T00:14:48;94030.88;;;7.08;99.34
41690;BME280;27372;42.658;23.256;2024-03-17T00:17:13;94018.63;;;7.15;98.68
41690;BME280;27372;42.658;23.256;2024-03-17T00:19:40;94025.34;;;7.30;98.14
41690;BME280;27372;42.658;23.256;2024-03-17T00:22:05;94021.00;;;7.17;98.87
41690;BME280;27372;42.658;23.256;2024-03-17T00:24:34;94020.75;;;7.25;97.65
41690;BME280;27372;42.658;23.256;2024-03-17T00:27:03;94021.97;;;7.29;97.69
41690;BME280;27372;42.658;23.256;2024-03-17T00:29:28;94031.88;;;6.62;100.00
41690;BME280;27372;42.658;23.256;2024-03-17T00:31:54;94022.13;;;6.17;100.00
41690;BME280;27372;42.658;23.256;2024-03-17T00:34:20;94016.88;;;5.70;100.00
41690;BME280;27372;42.658;23.256;2024-03-17T00:36:45;94019.91;;;5.87;100.00
41690;BME280;27372;42.658;23.256;2024-03-17T00:39:11;94022.50;;;5.80;100.00
41690;BME280;27372;42.658;23.256;2024-03-17T00:41:37;94020.09;;;5.92;100.00
41690;BME280;27372;42.658;23.256;2024-03-17T00:44:04;94021.09;;;5.91;100.00
41690;BME280;27372;42.658;23.256;2024-03-17T00:46:29;94007.66;;;5.54;100.00
41690;BME280;27372;42.658;23.256;2024-03-17T00:48:54;94025.28;;;5.52;100.00
41690;BME280;27372;42.658;23.256;2024-03-17T00:51:20;94012.25;;;5.85;100.00
41690;BME280;27372;42.658;23.256;2024-03-17T00:53:45;94021.13;;;6.11;100.00
41690;BME280;27372;42.658;23.256;2024-03-17T00:56:11;94021.13;;;6.18;100.00
41690;BME280;27372;42.658;23.256;2024-03-17T00:58:36;94025.31;;;6.26;100.00
41690;BME280;27372;42.658;23.256;2024-03-17T01:01:03;94028.28;;;6.36;100.00
41690;BME280;27372;42.658;23.256;2024-03-17T01:03:29;94023.44;;;6.46;100.00
41690;BME280;27372;42.658;23.256;2024-03-17T01:05:54;94026.13;;;6.06;100.00
41690;BME280;27372;42.658;23.256;2024-03-17T01:08:20;94021.72;;;5.80;100.00
41690;BME280;27372;42.658;23.256;2024-03-17T01:10:46;94022.31;;;6.02;100.00
41690;BME280;27372;42.658;23.256;2024-03-17T01:13:16;94029.13;;;6.16;100.00
41690;BME280;27372;42.658;23.256;2024-03-17T01:15:42;94024.69;;;6.37;100.00
41690;BME280;27372;42.658;23.256;2024-03-17T01:18:07;94023.06;;;6.36;100.00
41690;BME280;27372;42.658;23.256;2024-03-17T01:20:35;94025.88;;;6.55;100.00
41690;BME280;27372;42.658;23.256;2024-03-17T01:23:01;94029.84;;;6.64;100.00
41690;BME280;27372;42.658;23.256;2024-03-17T01:25:26;94027.25;;;6.64;100.00
41690;BME280;27372;42.658;23.256;2024-03-17T01:27:53;94020.44;;;6.56;100.00
41690;BME280;27372;42.658;23.256;2024-03-17T01:30:18;94023.44;;;6.53;100.00
41690;BME280;27372;42.658;23.256;2024-03-17T01:32:46;94024.44;;;6.52;100.00
41690;BME280;27372;42.658;23.256;2024-03-17T01:35:12;94027.28;;;6.50;100.00
41690;BME280;27372;42.658;23.256;2024-03-17T01:37:38;94022.63;;;6.59;100.00
41690;BME280;27372;42.658;23.256;2024-03-17T01:40:04;94025.88;;;6.48;100.00
41690;BME280;27372;42.658;23.256;2024-03-17T01:42:39;94013.44;;;6.43;100.00
41690;BME280;27372;42.658;23.256;2024-03-17T01:45:27;94014.19;;;6.64;100.00
41690;BME280;27372;42.658;23.256;2024-03-17T01:47:54;94010.47;;;6.33;100.00
41690;BME280;27372;42.658;23.256;2024-03-17T01:50:23;94018.47;;;6.31;100.00
41690;BME280;27372;42.658;23.256;2024-03-17T01:52:52;94009.81;;;6.51;100.00
41690;BME280;27372;42.658;23.256;2024-03-17T01:55:18;94019.03;;;6.60;100.00
41690;BME280;27372;42.658;23.256;2024-03-17T01:57:44;94013.56;;;6.75;100.00
41690;BME280;27372;42.658;23.256;2024-03-17T02:00:10;94014.09;;;6.84;100.00
41690;BME280;27372;42.658;23.256;2024-03-17T02:02:37;94014.50;;;6.88;100.00
41690;BME280;27372;42.658;23.256;2024-03-17T02:05:03;94011.94;;;6.81;100.00
41690;BME280;27372;42.658;23.256;2024-03-17T02:07:28;94016.34;;;6.80;98.87
41690;BME280;27372;42.658;23.256;2024-03-17T02:09:56;94015.81;;;6.65;99.85
41690;BME280;27372;42.658;23.256;2024-03-17T02:12:22;94020.56;;;6.75;99.28
41690;BME280;27372;42.658;23.256;2024-03-17T02:14:47;94017.22;;;6.54;100.00
41690;BME280;27372;42.658;23.256;2024-03-17T02:17:13;94013.84;;;6.40;100.00
41690;BME280;27372;42.658;23.256;2024-03-17T02:19:38;94015.47;;;6.21;100.00
41690;BME280;27372;42.658;23.256;2024-03-17T02:22:10;94011.50;;;6.05;100.00
41690;BME280;27372;42.658;23.256;2024-03-17T02:24:35;94015.88;;;5.78;100.00
41690;BME280;27372;42.658;23.256;2024-03-17T02:27:00;94014.47;;;5.95;100.00
41690;BME280;27372;42.658;23.256;2024-03-17T02:29:26;94017.50;;;6.19;100.00
41690;BME280;27372;42.658;23.256;2024-03-17T02:31:51;94019.91;;;6.07;100.00
41690;BME280;27372;42.658;23.256;2024-03-17T02:34:17;94019.91;;;6.20;100.00
41690;BME280;27372;42.658;23.256;2024-03-17T02:36:42;94023.69;;;6.38;100.00
41690;BME280;27372;42.658;23.256;2024-03-17T02:39:07;94015.06;;;6.37;100.00
41690;BME280;27372;42.658;23.256;2024-03-17T02:41:52;94009.00;;;6.44;100.00
41690;BME280;27372;42.658;23.256;2024-03-17T02:44:17;94015.22;;;6.43;100.00
41690;BME280;27372;42.658;23.256;2024-03-17T02:46:42;94007.47;;;6.02;100.00
41690;BME280;27372;42.658;23.256;2024-03-17T02:49:08;94015.28;;;5.82;100.00
41690;BME280;27372;42.658;23.256;2024-03-17T02:51:39;94006.06;;;5.80;100.00
41690;BME280;27372;42.658;23.256;2024-03-17T02:54:04;94012.28;;;5.79;100.00
41690;BME280;27372;42.658;23.256;2024-03-17T02:56:31;94009.84;;;5.77;100.00
41690;BME280;27372;42.658;23.256;2024-03-17T02:58:57;94006.25;;;5.78;100.00
41690;BME280;27372;42.658;23.256;2024-03-17T03:01:22;94006.25;;;5.85;100.00
41690;BME280;27372;42.658;23.256;2024-03-17T03:03:47;93998.66;;;6.03;100.00
41690;BME280;27372;42.658;23.256;2024-03-17T03:06:14;94008.25;;;5.89;100.00
41690;BME280;27372;42.658;23.256;2024-03-17T03:08:40;94006.25;;;5.91;100.00
41690;BME280;27372;42.658;23.256;2024-03-17T03:11:10;93999.66;;;6.02;100.00
41690;BME280;27372;42.658;23.256;2024-03-17T03:13:38;93993.03;;;6.13;100.00
41690;BME280;27372;42.658;23.256;2024-03-17T03:16:06;94002.88;;;6.11;100.00
41690;BME280;27372;42.658;23.256;2024-03-17T03:18:31;93997.81;;;6.16;100.00
41690;BME280;27372;42.658;23.256;2024-03-17T03:20:57;94001.84;;;6.19;100.00
41690;BME280;27372;42.658;23.256;2024-03-17T03:23:22;93993.66;;;6.02;100.00
41690;BME280;27372;42.658;23.256;2024-03-17T03:25:54;93988.22;;;6.10;100.00
41690;BME280;27372;42.658;23.256;2024-03-17T03:28:20;93996.25;;;5.68;100.00
41690;BME280;27372;42.658;23.256;2024-03-17T03:30:45;93995.41;;;5.61;100.00
41690;BME280;27372;42.658;23.256;2024-03-17T03:33:10;93993.66;;;4.86;100.00
41690;BME280;27372;42.658;23.256;2024-03-17T03:35:39;93989.22;;;4.73;100.00
41690;BME280;27372;42.658;23.256;2024-03-17T03:38:05;94000.94;;;5.04;100.00
41690;BME280;27372;42.658;23.256;2024-03-17T03:40:30;94002.63;;;5.46;100.00
41690;BME280;27372;42.658;23.256;2024-03-17T03:42:56;93999.44;;;5.64;100.00
41690;BME280;27372;42.658;23.256;2024-03-17T03:45:22;94007.06;;;5.72;100.00
41690;BME280;27372;42.658;23.256;2024-03-17T03:47:49;94013.47;;;5.56;100.00
41690;BME280;27372;42.658;23.256;2024-03-17T03:50:19;94015.25;;;4.73;100.00
41690;BME280;27372;42.658;23.256;2024-03-17T03:52:45;94024.50;;;4.41;100.00
41690;BME280;27372;42.658;23.256;2024-03-17T03:55:11;94029.41;;;4.22;100.00
41690;BME280;27372;42.658;23.256;2024-03-17T03:57:43;94025.81;;;4.30;100.00
41690;BME280;27372;42.658;23.256;2024-03-17T04:00:11;94028.34;;;4.51;100.00
41690;BME280;27372;42.658;23.256;2024-03-17T04:02:47;94030.38;;;4.21;100.00
41690;BME280;27372;42.658;23.256;2024-03-17T04:05:13;94027.50;;;4.09;100.00
41690;BME280;27372;42.658;23.256;2024-03-17T04:07:38;94034.13;;;4.47;100.00
41690;BME280;27372;42.658;23.256;2024-03-17T04:10:05;94026.06;;;4.77;100.00
41690;BME280;27372;42.658;23.256;2024-03-17T04:12:31;94032.19;;;5.04;100.00
41690;BME280;27372;42.658;23.256;2024-03-17T04:14:57;94031.81;;;5.21;100.00
41690;BME280;27372;42.658;23.256;2024-03-17T04:17:23;94031.38;;;5.10;100.00
41690;BME280;27372;42.658;23.256;2024-03-17T04:19:49;94043.69;;;5.37;100.00
41690;BME280;27372;42.658;23.256;2024-03-17T04:22:15;94045.88;;;5.33;100.00
41690;BME280;27372;42.658;23.256;2024-03-17T04:24:42;94041.19;;;4.60;100.00
41690;BME280;27372;42.658;23.256;2024-03-17T04:27:08;94047.56;;;4.50;100.00
41690;BME280;27372;42.658;23.256;2024-03-17T04:29:33;94052.44;;;4.32;100.00
41690;BME280;27372;42.658;23.256;2024-03-17T04:32:00;94052.78;;;4.22;100.00
41690;BME280;27372;42.658;23.256;2024-03-17T04:34:27;94058.78;;;4.51;100.00
41690;BME280;27372;42.658;23.256;2024-03-17T04:36:52;94059.06;;;4.70;100.00
41690;BME280;27372;42.658;23.256;2024-03-17T04:39:19;94055.06;;;4.67;100.00
41690;BME280;27372;42.658;23.256;2024-03-17T04:41:45;94064.88;;;4.72;100.00
41690;BME280;27372;42.658;23.256;2024-03-17T04:44:10;94066.66;;;4.71;100.00
41690;BME280;27372;42.658;23.256;2024-03-17T04:46:36;94064.22;;;4.63;100.00
41690;BME280;27372;42.658;23.256;2024-03-17T04:49:01;94071.28;;;4.34;100.00
41690;BME280;27372;42.658;23.256;2024-03-17T04:51:29;94068.16;;;4.17;100.00
41690;BME280;27372;42.658;23.256;2024-03-17T04:53:57;94069.94;;;4.80;100.00
41690;BME280;27372;42.658;23.256;2024-03-17T04:56:22;94073.63;;;5.06;100.00
41690;BME280;27372;42.658;23.256;2024-03-17T04:58:48;94072.53;;;5.35;100.00
41690;BME280;27372;42.658;23.256;2024-03-17T05:01:13;94078.97;;;5.53;100.00
41690;BME280;27372;42.658;23.256;2024-03-17T05:03:39;94080.41;;;5.62;100.00
41690;BME280;27372;42.658;23.256;2024-03-17T05:06:05;94087.03;;;5.58;100.00
41690;BME280;27372;42.658;23.256;2024-03-17T05:08:32;94086.28;;;5.16;100.00
41690;BME280;27372;42.658;23.256;2024-03-17T05:11:02;94095.34;;;5.26;100.00
41690;BME280;27372;42.658;23.256;2024-03-17T05:13:31;94097.66;;;5.63;100.00
41690;BME280;27372;42.658;23.256;2024-03-17T05:15:57;94105.34;;;5.98;100.00
41690;BME280;27372;42.658;23.256;2024-03-17T05:18:23;94104.56;;;6.18;100.00
41690;BME280;27372;42.658;23.256;2024-03-17T05:21:03;94109.56;;;6.46;100.00
41690;BME280;27372;42.658;23.256;2024-03-17T05:23:31;94110.16;;;6.55;100.00
41690;BME280;27372;42.658;23.256;2024-03-17T05:25:57;94108.75;;;6.52;100.00
41690;BME280;27372;42.658;23.256;2024-03-17T05:28:25;94116.19;;;6.35;100.00
41690;BME280;27372;42.658;23.256;2024-03-17T05:30:50;94110.97;;;6.35;100.00
41690;BME280;27372;42.658;23.256;2024-03-17T05:33:18;94118.56;;;6.77;100.00
41690;BME280;27372;42.658;23.256;2024-03-17T05:35:59;94114.06;;;7.05;100.00
41690;BME280;27372;42.658;23.256;2024-03-17T05:38:29;94111.22;;;7.20;99.87
41690;BME280;27372;42.658;23.256;2024-03-17T05:41:04;94111.66;;;7.17;100.00
41690;BME280;27372;42.658;23.256;2024-03-17T05:43:37;94113.50;;;7.48;99.45
41690;BME280;27372;42.658;23.256;2024-03-17T05:46:05;94107.97;;;7.70;99.33
41690;BME280;27372;42.658;23.256;2024-03-17T05:48:32;94113.31;;;7.88;98.60
41690;BME280;27372;42.658;23.256;2024-03-17T05:50:57;94115.84;;;8.02;98.20
41690;BME280;27372;42.658;23.256;2024-03-17T05:53:23;94111.13;;;8.11;97.44
41690;BME280;27372;42.658;23.256;2024-03-17T05:55:52;94109.53;;;8.09;96.02
41690;BME280;27372;42.658;23.256;2024-03-17T05:58:17;94108.66;;;7.90;96.07
41690;BME280;27372;42.658;23.256;2024-03-17T06:00:43;94102.56;;;7.97;95.87
41690;BME280;27372;42.658;23.256;2024-03-17T06:03:09;94114.13;;;8.14;94.71
41690;BME280;27372;42.658;23.256;2024-03-17T06:05:36;94117.88;;;8.25;94.65
41690;BME280;27372;42.658;23.256;2024-03-17T06:10:46;94109.72;;;8.40;92.97
41690;BME280;27372;42.658;23.256;2024-03-17T06:13:18;94111.69;;;8.70;91.75
41690;BME280;27372;42.658;23.256;2024-03-17T06:15:45;94117.84;;;8.82;90.05
41690;BME280;27372;42.658;23.256;2024-03-17T06:18:14;94134.09;;;9.10;89.83
41690;BME280;27372;42.658;23.256;2024-03-17T06:20:44;94120.63;;;9.25;89.70
41690;BME280;27372;42.658;23.256;2024-03-17T06:26:52;94130.56;;;9.53;86.54
41690;BME280;27372;42.658;23.256;2024-03-17T06:29:18;94126.47;;;9.57;86.43
41690;BME280;27372;42.658;23.256;2024-03-17T06:31:46;94136.59;;;9.54;87.12
41690;BME280;27372;42.658;23.256;2024-03-17T06:34:12;94132.94;;;9.73;85.91
41690;BME280;27372;42.658;23.256;2024-03-17T06:40:01;94147.34;;;9.83;85.07
41690;BME280;27372;42.658;23.256;2024-03-17T06:42:47;94148.66;;;9.73;85.61
41690;BME280;27372;42.658;23.256;2024-03-17T06:45:21;94150.97;;;9.82;85.59
41690;BME280;27372;42.658;23.256;2024-03-17T06:47:47;94151.25;;;9.92;84.15
41690;BME280;27372;42.658;23.256;2024-03-17T06:50:12;94144.44;;;9.72;84.31
41690;BME280;27372;42.658;23.256;2024-03-17T06:53:05;94145.38;;;9.78;84.93
41690;BME280;27372;42.658;23.256;2024-03-17T06:55:31;94145.50;;;9.53;86.04
41690;BME280;27372;42.658;23.256;2024-03-17T06:57:56;94139.44;;;9.71;86.48
41690;BME280;27372;42.658;23.256;2024-03-17T07:00:21;94140.56;;;9.75;86.03
41690;BME280;27372;42.658;23.256;2024-03-17T07:02:50;94144.84;;;9.88;85.59
41690;BME280;27372;42.658;23.256;2024-03-17T07:05:16;94148.38;;;10.12;83.45
41690;BME280;27372;42.658;23.256;2024-03-17T07:07:42;94154.78;;;10.28;83.46
41690;BME280;27372;42.658;23.256;2024-03-17T07:10:09;94148.59;;;10.53;82.96
41690;BME280;27372;42.658;23.256;2024-03-17T07:12:39;94150.75;;;10.80;81.21
41690;BME280;27372;42.658;23.256;2024-03-17T07:15:06;94157.38;;;10.70;81.26
41690;BME280;27372;42.658;23.256;2024-03-17T07:17:33;94146.31;;;10.80;80.53
41690;BME280;27372;42.658;23.256;2024-03-17T07:19:59;94152.59;;;10.91;78.93
41690;BME280;27372;42.658;23.256;2024-03-17T07:22:24;94144.94;;;10.54;80.54
41690;BME280;27372;42.658;23.256;2024-03-17T07:24:54;94158.06;;;10.54;81.43
41690;BME280;27372;42.658;23.256;2024-03-17T07:27:30;94160.25;;;10.69;79.67
41690;BME280;27372;42.658;23.256;2024-03-17T07:29:59;94156.13;;;10.97;78.82
41690;BME280;27372;42.658;23.256;2024-03-17T07:32:26;94161.28;;;11.15;79.45
41690;BME280;27372;42.658;23.256;2024-03-17T07:34:52;94157.94;;;11.44;76.67
41690;BME280;27372;42.658;23.256;2024-03-17T07:37:19;94161.63;;;11.72;75.48
41690;BME280;27372;42.658;23.256;2024-03-17T07:39:45;94164.03;;;11.73;74.37
41690;BME280;27372;42.658;23.256;2024-03-17T07:42:13;94153.94;;;11.82;74.46
41690;BME280;27372;42.658;23.256;2024-03-17T07:44:38;94153.00;;;11.47;76.08
41690;BME280;27372;42.658;23.256;2024-03-17T07:47:04;94148.06;;;11.51;77.36
41690;BME280;27372;42.658;23.256;2024-03-17T07:49:30;94151.06;;;11.55;77.25
41690;BME280;27372;42.658;23.256;2024-03-17T07:51:55;94157.75;;;11.62;77.26
41690;BME280;27372;42.658;23.256;2024-03-17T07:54:23;94166.25;;;11.93;75.37
41690;BME280;27372;42.658;23.256;2024-03-17T07:56:48;94171.13;;;12.14;74.09
41690;BME280;27372;42.658;23.256;2024-03-17T07:59:17;94165.09;;;12.30;72.62
41690;BME280;27372;42.658;23.256;2024-03-17T08:01:44;94159.78;;;12.13;73.63
41690;BME280;27372;42.658;23.256;2024-03-17T08:04:10;94162.16;;;11.98;73.71
41690;BME280;27372;42.658;23.256;2024-03-17T08:06:40;94164.06;;;12.02;74.02
41690;BME280;27372;42.658;23.256;2024-03-17T08:09:09;94153.66;;;11.67;74.42
41690;BME280;27372;42.658;23.256;2024-03-17T08:11:35;94166.16;;;11.88;74.16
41690;BME280;27372;42.658;23.256;2024-03-17T08:14:01;94162.72;;;12.00;73.81
41690;BME280;27372;42.658;23.256;2024-03-17T08:16:27;94176.25;;;12.20;73.53
41690;BME280;27372;42.658;23.256;2024-03-17T08:18:54;94170.25;;;12.08;73.71
41690;BME280;27372;42.658;23.256;2024-03-17T08:21:20;94155.91;;;11.75;74.28
41690;BME280;27372;42.658;23.256;2024-03-17T08:23:45;94156.44;;;11.89;74.68
41690;BME280;27372;42.658;23.256;2024-03-17T08:26:12;94160.97;;;11.93;73.94
41690;BME280;27372;42.658;23.256;2024-03-17T08:28:37;94156.41;;;12.01;74.24
41690;BME280;27372;42.658;23.256;2024-03-17T08:31:03;94159.97;;;12.23;72.98
41690;BME280;27372;42.658;23.256;2024-03-17T08:33:30;94158.09;;;12.53;72.01
41690;BME280;27372;42.658;23.256;2024-03-17T08:36:00;94155.16;;;12.66;70.45
41690;BME280;27372;42.658;23.256;2024-03-17T08:38:28;94159.19;;;12.57;70.74
41690;BME280;27372;42.658;23.256;2024-03-17T08:40:54;94152.91;;;12.75;70.50
41690;BME280;27372;42.658;23.256;2024-03-17T08:43:20;94159.66;;;13.22;69.74
41690;BME280;27372;42.658;23.256;2024-03-17T08:48:29;94144.00;;;14.04;65.71
41690;BME280;27372;42.658;23.256;2024-03-17T08:50:56;94140.78;;;13.97;65.55
41690;BME280;27372;42.658;23.256;2024-03-17T08:53:22;94134.00;;;14.06;65.50
41690;BME280;27372;42.658;23.256;2024-03-17T08:55:47;94137.25;;;14.13;64.88
41690;BME280;27372;42.658;23.256;2024-03-17T08:58:13;94134.00;;;14.06;65.10
41690;BME280;27372;42.658;23.256;2024-03-17T09:00:38;94135.97;;;14.76;62.63
41690;BME280;27372;42.658;23.256;2024-03-17T09:03:06;94119.59;;;15.27;61.59
41690;BME280;27372;42.658;23.256;2024-03-17T09:05:34;94120.47;;;15.38;59.72
41690;BME280;27372;42.658;23.256;2024-03-17T09:08:00;94119.16;;;15.41;58.98
41690;BME280;27372;42.658;23.256;2024-03-17T09:10:26;94111.72;;;16.06;58.39
41690;BME280;27372;42.658;23.256;2024-03-17T09:12:51;94119.44;;;16.23;56.66
41690;BME280;27372;42.658;23.256;2024-03-17T09:15:16;94115.59;;;15.83;58.32
41690;BME280;27372;42.658;23.256;2024-03-17T09:17:42;94109.25;;;14.78;59.33
41690;BME280;27372;42.658;23.256;2024-03-17T09:20:11;94115.66;;;14.87;60.15
41690;BME280;27372;42.658;23.256;2024-03-17T09:22:41;94107.56;;;14.66;59.92
41690;BME280;27372;42.658;23.256;2024-03-17T09:25:07;94110.63;;;15.28;59.24
41690;BME280;27372;42.658;23.256;2024-03-17T09:27:33;94102.41;;;15.88;56.71
41690;BME280;27372;42.658;23.256;2024-03-17T09:29:59;94103.03;;;16.57;52.55
41690;BME280;27372;42.658;23.256;2024-03-17T09:32:25;94102.22;;;16.72;51.50
41690;BME280;27372;42.658;23.256;2024-03-17T09:34:50;94094.44;;;17.38;47.99
41690;BME280;27372;42.658;23.256;2024-03-17T09:37:16;94083.28;;;17.96;46.24
41690;BME280;27372;42.658;23.256;2024-03-17T09:39:41;94082.94;;;18.48;43.22
41690;BME280;27372;42.658;23.256;2024-03-17T09:42:17;94082.91;;;18.83;40.43
41690;BME280;27372;42.658;23.256;2024-03-17T09:44:43;94088.34;;;19.02;40.63
41690;BME280;27372;42.658;23.256;2024-03-17T09:47:18;94079.19;;;19.13;40.70
41690;BME280;27372;42.658;23.256;2024-03-17T09:49:43;94079.72;;;19.83;39.45
41690;BME280;27372;42.658;23.256;2024-03-17T09:52:22;94080.91;;;19.28;38.80
41690;BME280;27372;42.658;23.256;2024-03-17T09:55:17;94081.72;;;18.35;40.13
41690;BME280;27372;42.658;23.256;2024-03-17T09:57:44;94080.41;;;17.88;40.69
41690;BME280;27372;42.658;23.256;2024-03-17T10:00:11;94090.72;;;17.94;40.18
41690;BME280;27372;42.658;23.256;2024-03-17T10:02:42;94085.13;;;17.91;38.04
41690;BME280;27372;42.658;23.256;2024-03-17T10:05:18;94085.22;;;17.75;35.60
41690;BME280;27372;42.658;23.256;2024-03-17T10:07:44;94092.41;;;16.94;37.45
41690;BME280;27372;42.658;23.256;2024-03-17T10:10:11;94083.53;;;17.95;60.82
41690;BME280;27372;42.658;23.256;2024-03-17T10:12:37;94079.31;;;18.68;57.02
41690;BME280;27372;42.658;23.256;2024-03-17T10:15:03;94086.28;;;19.47;50.51
41690;BME280;27372;42.658;23.256;2024-03-17T10:17:33;94086.66;;;19.60;41.62
41690;BME280;27372;42.658;23.256;2024-03-17T10:20:19;94087.38;;;20.28;39.41
41690;BME280;27372;42.658;23.256;2024-03-17T10:25:24;94083.44;;;20.77;37.53
41690;BME280;27372;42.658;23.256;2024-03-17T10:27:50;94091.38;;;20.63;37.02
41690;BME280;27372;42.658;23.256;2024-03-17T10:30:19;94092.34;;;20.87;36.05
41690;BME280;27372;42.658;23.256;2024-03-17T10:32:45;94088.09;;;20.67;36.37
41690;BME280;27372;42.658;23.256;2024-03-17T10:35:33;94086.38;;;20.24;37.21
41690;BME280;27372;42.658;23.256;2024-03-17T10:38:02;94088.94;;;20.48;36.63
41690;BME280;27372;42.658;23.256;2024-03-17T10:40:28;94092.34;;;20.35;38.52
41690;BME280;27372;42.658;23.256;2024-03-17T10:42:55;94082.25;;;20.84;36.17
41690;BME280;27372;42.658;23.256;2024-03-17T10:45:21;94082.28;;;20.98;36.05
41690;BME280;27372;42.658;23.256;2024-03-17T10:47:51;94083.47;;;19.82;34.55
41690;BME280;27372;42.658;23.256;2024-03-17T10:50:21;94078.34;;;19.42;35.86
41690;BME280;27372;42.658;23.256;2024-03-17T10:52:50;94081.34;;;19.35;36.36
41690;BME280;27372;42.658;23.256;2024-03-17T10:55:26;94094.31;;;19.18;36.63
41690;BME280;27372;42.658;23.256;2024-03-17T10:57:55;94073.88;;;18.49;38.53
41690;BME280;27372;42.658;23.256;2024-03-17T11:00:24;94080.53;;;18.52;39.94
41690;BME280;27372;42.658;23.256;2024-03-17T11:02:52;94083.53;;;17.95;39.99
41690;BME280;27372;42.658;23.256;2024-03-17T11:05:24;94079.00;;;18.06;40.24
41690;BME280;27372;42.658;23.256;2024-03-17T11:07:56;94069.56;;;18.58;39.84
41690;BME280;27372;42.658;23.256;2024-03-17T11:10:29;94081.41;;;17.92;39.89
41690;BME280;27372;42.658;23.256;2024-03-17T11:12:58;94081.25;;;16.97;41.54
41690;BME280;27372;42.658;23.256;2024-03-17T11:20:42;94075.94;;;15.98;43.93
41690;BME280;27372;42.658;23.256;2024-03-17T11:23:09;94065.38;;;16.14;43.27
41690;BME280;27372;42.658;23.256;2024-03-17T11:25:40;94063.75;;;15.92;43.94
41690;BME280;27372;42.658;23.256;2024-03-17T11:28:09;94056.41;;;15.31;44.51
41690;BME280;27372;42.658;23.256;2024-03-17T11:30:48;94056.97;;;15.43;44.12
41690;BME280;27372;42.658;23.256;2024-03-17T11:39:07;94043.97;;;17.43;37.29
41690;BME280;27372;42.658;23.256;2024-03-17T11:41:46;94054.19;;;16.89;36.85
41690;BME280;27372;42.658;23.256;2024-03-17T11:47:04;94043.81;;;18.54;34.56
41690;BME280;27372;42.658;23.256;2024-03-17T11:49:32;94035.75;;;19.18;33.05
41690;BME280;27372;42.658;23.256;2024-03-17T11:52:04;94031.66;;;18.77;34.14
41690;BME280;27372;42.658;23.256;2024-03-17T11:54:32;94031.69;;;18.72;35.12
41690;BME280;27372;42.658;23.256;2024-03-17T11:57:05;94020.59;;;18.89;33.89
41690;BME280;27372;42.658;23.256;2024-03-17T11:59:32;94024.03;;;17.96;35.46
41690;BME280;27372;42.658;23.256;2024-03-17T12:01:57;94031.00;;;17.31;36.36
41690;BME280;27372;42.658;23.256;2024-03-17T12:04:24;94044.38;;;16.85;37.02
41690;BME280;27372;42.658;23.256;2024-03-17T12:06:54;94034.53;;;17.72;36.93
41690;BME280;27372;42.658;23.256;2024-03-17T12:12:25;94029.44;;;17.80;36.90
41690;BME280;27372;42.658;23.256;2024-03-17T12:15:00;94024.66;;;17.27;38.51
41690;BME280;27372;42.658;23.256;2024-03-17T12:17:25;94031.72;;;16.51;38.72
41690;BME280;27372;42.658;23.256;2024-03-17T12:19:52;94030.34;;;15.76;41.55
41690;BME280;27372;42.658;23.256;2024-03-17T12:22:19;94019.13;;;15.48;42.30
41690;BME280;27372;42.658;23.256;2024-03-17T12:24:47;94032.28;;;15.22;43.74
41690;BME280;27372;42.658;23.256;2024-03-17T12:27:20;94047.84;;;15.08;45.21
41690;BME280;27372;42.658;23.256;2024-03-17T12:29:48;94020.34;;;14.66;46.36
41690;BME280;27372;42.658;23.256;2024-03-17T12:32:15;94031.81;;;14.39;47.90
41690;BME280;27372;42.658;23.256;2024-03-17T12:34:42;94026.38;;;14.19;49.98
41690;BME280;27372;42.658;23.256;2024-03-17T12:37:08;94022.44;;;13.89;49.97
41690;BME280;27372;42.658;23.256;2024-03-17T12:39:34;94028.03;;;14.30;51.32
41690;BME280;27372;42.658;23.256;2024-03-17T12:42:23;94026.66;;;14.60;50.96
41690;BME280;27372;42.658;23.256;2024-03-17T12:44:51;94012.91;;;15.06;50.29
41690;BME280;27372;42.658;23.256;2024-03-17T12:47:21;94024.22;;;14.91;50.75
41690;BME280;27372;42.658;23.256;2024-03-17T12:49:57;94010.78;;;15.03;50.62
41690;BME280;27372;42.658;23.256;2024-03-17T12:52:32;94019.84;;;15.22;51.25
41690;BME280;27372;42.658;23.256;2024-03-17T12:55:04;94024.38;;;14.69;50.91
41690;BME280;27372;42.658;23.256;2024-03-17T12:57:52;94017.97;;;14.27;52.80
41690;BME280;27372;42.658;23.256;2024-03-17T13:00:37;94008.53;;;14.36;53.71
41690;BME280;27372;42.658;23.256;2024-03-17T13:03:05;94013.38;;;14.50;53.23
41690;BME280;27372;42.658;23.256;2024-03-17T13:05:32;94020.22;;;14.45;53.60
41690;BME280;27372;42.658;23.256;2024-03-17T13:07:58;94006.81;;;14.57;53.39
41690;BME280;27372;42.658;23.256;2024-03-17T13:10:27;94017.69;;;14.61;53.41
41690;BME280;27372;42.658;23.256;2024-03-17T13:13:08;94016.00;;;13.79;54.61
41690;BME280;27372;42.658;23.256;2024-03-17T13:15:34;94013.38;;;13.79;55.98
41690;BME280;27372;42.658;23.256;2024-03-17T13:18:03;94009.09;;;13.73;56.05
41690;BME280;27372;42.658;23.256;2024-03-17T13:20:30;94000.50;;;13.33;58.11
41690;BME280;27372;42.658;23.256;2024-03-17T13:22:56;94012.91;;;13.88;57.95
41690;BME280;27372;42.658;23.256;2024-03-17T13:25:24;94010.94;;;14.05;57.10